Time;durP1;ratioP1;P1;durP2;ratioP2;P2;SDS_P1;SDS_P2;PMS_P1;PMS_P2;Temp;Humidity;BMP_temperature;BMP_pressure;BME280_temperature;BME280_humidity;BME280_pressure;Samples;Min_cycle;Max_cycle;Signal;HPM_P1;HPM_P2
2021/04/12 00:02:00;;;;;;;6.20;5.30;;;;;;;;;;5065568;28;20488;-94
2021/04/12 00:04:31;;;;;;;8.67;6.03;;;;;;;;;;5064849;28;20443;-94
2021/04/12 00:07:01;;;;;;;7.50;6.70;;;;;;;;;;5051631;28;20494;-94
2021/04/12 00:09:33;;;;;;;7.40;6.70;;;;;;;;;;5054901;28;20447;-94
2021/04/12 00:12:02;;;;;;;7.77;7.00;;;;;;;;;;5055940;28;20455;-94
2021/04/12 00:14:31;;;;;;;10.47;7.17;;;;;;;;;;5064416;28;20444;-95
2021/04/12 00:17:01;;;;;;;7.93;7.23;;;;;;;;;;5049395;28;20453;-95
2021/04/12 00:19:38;;;;;;;9.33;6.57;;;;;;;;;;5055682;28;20444;-94
2021/04/12 00:22:08;;;;;;;7.70;6.90;;;;;;;;;;5062383;28;20493;-93
2021/04/12 00:24:35;;;;;;;7.67;6.97;;;;;;;;;;5060385;28;20475;-92
2021/04/12 00:27:04;;;;;;;8.07;6.93;;;;;;;;;;5063572;28;20440;-93
2021/04/12 00:29:33;;;;;;;6.50;6.00;;;;;;;;;;5060164;28;20450;-93
2021/04/12 00:32:02;;;;;;;8.53;7.00;;;;;;;;;;5063443;28;20450;-94
2021/04/12 00:34:30;;;;;;;10.33;7.10;;;;;;;;;;5058901;28;20450;-94
2021/04/12 00:36:59;;;;;;;11.03;7.13;;;;;;;;;;5047525;28;20478;-93
2021/04/12 00:39:35;;;;;;;9.67;7.93;;;;;;;;;;5054882;28;20500;-94
2021/04/12 00:42:16;;;;;;;8.30;7.50;;;;;;;;;;5056093;28;20514;-94
2021/04/12 00:44:55;;;;;;;8.30;7.37;;;;;;;;;;5038688;28;20473;-94
2021/04/12 00:47:28;;;;;;;9.33;7.67;;;;;;;;;;5053441;28;20442;-93
2021/04/12 00:50:02;;;;;;;10.23;8.03;;;;;;;;;;5042305;28;20501;-93
2021/04/12 00:52:43;;;;;;;9.70;7.13;;;;;;;;;;5044408;28;20451;-93
2021/04/12 00:55:26;;;;;;;10.10;7.47;;;;;;;;;;5049264;28;20462;-93
2021/04/12 00:57:59;;;;;;;10.07;7.53;;;;;;;;;;5052441;28;20495;-93
2021/04/12 01:00:27;;;;;;;9.80;7.73;;;;;;;;;;5051866;28;20460;-94
2021/04/12 01:02:58;;;;;;;9.80;7.03;;;;;;;;;;5046531;28;20462;-92
2021/04/12 01:05:33;;;;;;;8.40;7.43;;;;;;;;;;5055946;28;20449;-92
2021/04/12 01:08:09;;;;;;;7.97;7.20;;;;;;;;;;5061156;28;20426;-93
2021/04/12 01:10:39;;;;;;;7.53;6.53;;;;;;;;;;5063029;28;20478;-93
2021/04/12 01:13:18;;;;;;;10.67;7.47;;;;;;;;;;5061727;28;20458;-94
2021/04/12 01:15:57;;;;;;;8.73;6.83;;;;;;;;;;5054123;28;20463;-94
2021/04/12 01:18:35;;;;;;;8.77;7.30;;;;;;;;;;5051685;28;20477;-93
2021/04/12 01:21:31;;;;;;;10.77;6.90;;;;;;;;;;5046079;28;21070;-94
2021/04/12 01:24:07;;;;;;;9.90;6.93;;;;;;;;;;5051689;28;20446;-94
2021/04/12 01:26:54;;;;;;;7.93;7.13;;;;;;;;;;5049791;28;20469;-94
2021/04/12 01:29:37;;;;;;;8.90;7.30;;;;;;;;;;5051727;28;20458;-95
2021/04/12 01:32:27;;;;;;;8.77;7.87;;;;;;;;;;5051453;28;20454;-95
2021/04/12 01:35:15;;;;;;;9.43;8.33;;;;;;;;;;5050093;28;20451;-96
2021/04/12 01:37:48;;;;;;;11.50;9.40;;;;;;;;;;5044386;28;20451;-94
2021/04/12 01:40:24;;;;;;;12.67;9.37;;;;;;;;;;5056719;28;20500;-94
2021/04/12 01:42:54;;;;;;;12.07;10.53;;;;;;;;;;5061479;28;20453;-96
2021/04/12 01:45:29;;;;;;;11.73;10.57;;;;;;;;;;5055313;28;20473;-94
2021/04/12 01:48:00;;;;;;;14.67;13.20;;;;;;;;;;5047255;28;20470;-91
2021/04/12 01:50:34;;;;;;;13.80;12.60;;;;;;;;;;5061892;28;20485;-91
2021/04/12 01:53:20;;;;;;;16.30;14.37;;;;;;;;;;5054221;28;20453;-92
2021/04/12 01:55:55;;;;;;;15.60;13.90;;;;;;;;;;5041433;28;21036;-92
2021/04/12 01:58:30;;;;;;;14.40;13.00;;;;;;;;;;5052530;28;20492;-92
2021/04/12 02:01:07;;;;;;;14.37;12.87;;;;;;;;;;5038642;28;20500;-93
2021/04/12 02:03:45;;;;;;;17.90;16.10;;;;;;;;;;5052173;28;20442;-94
2021/04/12 02:06:34;;;;;;;14.83;13.37;;;;;;;;;;5050421;28;20473;-93
2021/04/12 02:09:05;;;;;;;16.00;12.63;;;;;;;;;;5054510;28;20442;-92
2021/04/12 02:11:43;;;;;;;12.40;11.00;;;;;;;;;;5044013;28;21194;-93
2021/04/12 02:14:16;;;;;;;20.53;12.00;;;;;;;;;;5051595;28;20442;-92
2021/04/12 02:16:52;;;;;;;12.90;11.60;;;;;;;;;;5057079;28;20466;-93
2021/04/12 02:19:25;;;;;;;11.60;10.40;;;;;;;;;;5045284;28;20453;-92
2021/04/12 02:21:58;;;;;;;14.97;10.80;;;;;;;;;;5041573;28;20487;-93
2021/04/12 02:24:29;;;;;;;10.77;9.67;;;;;;;;;;5057210;28;20449;-92
2021/04/12 02:27:01;;;;;;;11.53;9.50;;;;;;;;;;5054776;28;20478;-93
2021/04/12 02:29:30;;;;;;;10.50;8.90;;;;;;;;;;5050535;28;20455;-93
2021/04/12 02:32:05;;;;;;;10.17;8.10;;;;;;;;;;5045986;28;20442;-93
2021/04/12 02:34:36;;;;;;;11.67;9.43;;;;;;;;;;5056824;28;20503;-93
2021/04/12 02:37:07;;;;;;;15.43;9.93;;;;;;;;;;5044410;28;21073;-92
2021/04/12 02:39:49;;;;;;;10.50;9.50;;;;;;;;;;5052934;28;20461;-93
2021/04/12 02:42:20;;;;;;;11.47;10.20;;;;;;;;;;5047174;28;20498;-94
2021/04/12 02:44:54;;;;;;;11.40;9.87;;;;;;;;;;5058372;28;20457;-94
2021/04/12 02:47:44;;;;;;;11.40;9.20;;;;;;;;;;5049929;28;20447;-95
2021/04/12 02:50:31;;;;;;;10.13;8.30;;;;;;;;;;5051388;28;20447;-95
2021/04/12 02:53:05;;;;;;;13.17;10.17;;;;;;;;;;5023332;28;20454;-93
2021/04/12 02:55:36;;;;;;;11.73;9.00;;;;;;;;;;5054580;28;20466;-92
2021/04/12 02:58:14;;;;;;;15.60;9.30;;;;;;;;;;5040302;28;20535;-93
2021/04/12 03:00:48;;;;;;;9.00;8.10;;;;;;;;;;5051966;28;20490;-94
2021/04/12 03:03:23;;;;;;;10.93;9.30;;;;;;;;;;5059120;28;20462;-93
2021/04/12 03:06:00;;;;;;;10.47;8.30;;;;;;;;;;5058174;28;20465;-93
2021/04/12 03:08:37;;;;;;;18.43;10.03;;;;;;;;;;5051487;28;20454;-91
2021/04/12 03:11:15;;;;;;;11.07;9.90;;;;;;;;;;5046421;28;20985;-92
2021/04/12 03:13:53;;;;;;;13.33;10.13;;;;;;;;;;5044732;28;20455;-93
2021/04/12 03:16:27;;;;;;;14.93;11.00;;;;;;;;;;5056467;28;20511;-91
2021/04/12 03:19:12;;;;;;;13.10;11.07;;;;;;;;;;5052540;28;20480;-92
2021/04/12 03:22:02;;;;;;;22.23;16.47;;;;;;;;;;5063519;28;20497;-93
2021/04/12 03:24:29;;;;;;;26.23;23.47;;;;;;;;;;5050864;28;20461;-92
2021/04/12 03:27:13;;;;;;;31.03;23.83;;;;;;;;;;5053562;28;20458;-92
2021/04/12 03:29:45;;;;;;;23.93;19.70;;;;;;;;;;5055149;28;20466;-92
2021/04/12 03:32:16;;;;;;;24.47;21.40;;;;;;;;;;5045523;28;20455;-92
2021/04/12 03:34:49;;;;;;;26.17;23.47;;;;;;;;;;5052683;28;20459;-92
2021/04/12 03:37:20;;;;;;;22.60;20.33;;;;;;;;;;5059794;28;20480;-92
2021/04/12 03:39:47;;;;;;;23.10;20.63;;;;;;;;;;5053788;28;20504;-93
2021/04/12 03:42:31;;;;;;;23.60;19.43;;;;;;;;;;5052810;28;21063;-94
2021/04/12 03:45:08;;;;;;;21.70;19.40;;;;;;;;;;5059743;28;20442;-94
2021/04/12 03:47:44;;;;;;;19.20;17.30;;;;;;;;;;5055875;28;20480;-93
2021/04/12 03:50:22;;;;;;;19.53;17.13;;;;;;;;;;5054951;28;20462;-93
2021/04/12 03:52:58;;;;;;;15.53;12.47;;;;;;;;;;5062193;28;20446;-93
2021/04/12 03:55:42;;;;;;;14.67;12.37;;;;;;;;;;5053175;28;20969;-92
2021/04/12 03:58:24;;;;;;;14.30;12.20;;;;;;;;;;5048717;28;20482;-92
2021/04/12 04:00:57;;;;;;;14.30;12.13;;;;;;;;;;5043651;28;20486;-92
2021/04/12 04:03:32;;;;;;;19.10;12.67;;;;;;;;;;5048074;28;20447;-92
2021/04/12 04:06:12;;;;;;;15.03;10.87;;;;;;;;;;5051842;28;20434;-91
2021/04/12 04:08:44;;;;;;;18.27;13.37;;;;;;;;;;5072864;28;20469;-91
2021/04/12 04:11:33;;;;;;;19.07;13.13;;;;;;;;;;5053081;28;20467;-91
2021/04/12 04:14:07;;;;;;;17.30;13.10;;;;;;;;;;5037786;28;20458;-92
2021/04/12 04:16:40;;;;;;;16.60;10.60;;;;;;;;;;5056761;28;20462;-91
2021/04/12 04:19:12;;;;;;;14.37;11.13;;;;;;;;;;5052183;28;20491;-91
2021/04/12 04:21:53;;;;;;;21.77;11.00;;;;;;;;;;5049057;28;20521;-91
2021/04/12 04:24:40;;;;;;;12.07;10.00;;;;;;;;;;5049085;28;20450;-92
2021/04/12 04:27:15;;;;;;;15.97;12.00;;;;;;;;;;5045301;28;20471;-91
2021/04/12 04:30:05;;;;;;;19.60;12.90;;;;;;;;;;5053436;28;20454;-92
2021/04/12 04:32:56;;;;;;;24.20;12.30;;;;;;;;;;5049605;28;20454;-92
2021/04/12 04:35:46;;;;;;;15.40;12.17;;;;;;;;;;5049307;28;20454;-91
2021/04/12 04:38:32;;;;;;;14.77;12.30;;;;;;;;;;5036814;28;20470;-92
2021/04/12 04:41:12;;;;;;;17.83;10.90;;;;;;;;;;5048052;28;20478;-92
2021/04/12 04:43:45;;;;;;;12.67;11.13;;;;;;;;;;5042386;28;20490;-92
2021/04/12 04:46:18;;;;;;;13.90;10.93;;;;;;;;;;5043589;28;20447;-94
2021/04/12 04:49:00;;;;;;;15.80;12.10;;;;;;;;;;5045338;28;20457;-93
2021/04/12 04:51:44;;;;;;;18.17;11.70;;;;;;;;;;5062460;28;20439;-93
2021/04/12 04:54:33;;;;;;;17.33;11.07;;;;;;;;;;5054921;28;20455;-92
2021/04/12 04:57:10;;;;;;;19.67;11.40;;;;;;;;;;5056055;28;20459;-93
2021/04/12 04:59:42;;;;;;;17.33;12.10;;;;;;;;;;5051865;28;20457;-93
2021/04/12 05:02:21;;;;;;;15.17;12.20;;;;;;;;;;5057879;28;20490;-93
2021/04/12 05:05:05;;;;;;;16.73;10.97;;;;;;;;;;5045224;28;20459;-93
2021/04/12 05:07:45;;;;;;;14.07;12.53;;;;;;;;;;5033249;28;20466;-93
2021/04/12 05:10:26;;;;;;;22.20;15.40;;;;;;;;;;5051824;28;20473;-93
2021/04/12 05:12:54;;;;;;;17.80;13.00;;;;;;;;;;5044599;28;20461;-94
2021/04/12 05:15:39;;;;;;;14.10;11.20;;;;;;;;;;5046082;28;20463;-94
2021/04/12 05:18:38;;;;;;;19.43;12.53;;;;;;;;;;5056485;28;20458;-94
2021/04/12 05:21:25;;;;;;;16.13;13.20;;;;;;;;;;4979355;28;20489;-94
2021/04/12 05:23:59;;;;;;;12.40;10.97;;;;;;;;;;4968949;28;20501;-94
2021/04/12 05:26:36;;;;;;;11.80;9.50;;;;;;;;;;5021273;28;20502;-93
2021/04/12 05:29:07;;;;;;;11.60;10.03;;;;;;;;;;5054257;28;20443;-95
2021/04/12 05:31:50;;;;;;;16.90;10.27;;;;;;;;;;5061672;28;20476;-93
2021/04/12 05:34:35;;;;;;;15.27;9.60;;;;;;;;;;5040528;28;20467;-94
2021/04/12 05:37:06;;;;;;;21.00;11.47;;;;;;;;;;5046647;28;20451;-94
2021/04/12 05:39:52;;;;;;;15.90;11.53;;;;;;;;;;5048536;28;20455;-93
2021/04/12 05:42:30;;;;;;;18.43;11.40;;;;;;;;;;5054333;28;20498;-94
2021/04/12 05:45:09;;;;;;;15.30;11.67;;;;;;;;;;5049687;28;20457;-94
2021/04/12 05:47:56;;;;;;;17.93;11.27;;;;;;;;;;5056029;28;20454;-92
2021/04/12 05:50:35;;;;;;;11.97;10.77;;;;;;;;;;5050733;28;20462;-92
2021/04/12 05:53:31;;;;;;;13.07;10.57;;;;;;;;;;5053675;28;20462;-91
2021/04/12 05:56:14;;;;;;;19.20;11.40;;;;;;;;;;5014709;28;20459;-92
2021/04/12 05:58:55;;;;;;;21.57;11.37;;;;;;;;;;5045815;28;20491;-93
2021/04/12 06:01:38;;;;;;;11.83;10.37;;;;;;;;;;5054775;28;20541;-92
2021/04/12 06:04:13;;;;;;;11.30;10.20;;;;;;;;;;5052872;28;20448;-92
2021/04/12 06:06:55;;;;;;;12.20;9.37;;;;;;;;;;5051413;28;20467;-91
2021/04/12 06:09:27;;;;;;;10.83;8.53;;;;;;;;;;5057776;28;20449;-93
2021/04/12 06:12:06;;;;;;;12.90;9.40;;;;;;;;;;5046761;28;20469;-92
2021/04/12 06:14:45;;;;;;;9.93;8.93;;;;;;;;;;5051743;28;20452;-93
2021/04/12 06:17:25;;;;;;;10.50;9.40;;;;;;;;;;5049993;28;20484;-93
2021/04/12 06:20:18;;;;;;;10.23;9.07;;;;;;;;;;5052017;28;20451;-93
2021/04/12 06:22:50;;;;;;;8.17;7.40;;;;;;;;;;5048977;28;20490;-93
2021/04/12 06:25:34;;;;;;;12.37;10.10;;;;;;;;;;5057318;28;20510;-92
2021/04/12 06:28:20;;;;;;;16.33;12.43;;;;;;;;;;5054980;28;20453;-92
2021/04/12 06:30:50;;;;;;;14.13;10.90;;;;;;;;;;5055078;28;20468;-91
2021/04/12 06:33:29;;;;;;;13.20;10.20;;;;;;;;;;5041569;28;20980;-93
2021/04/12 06:36:10;;;;;;;14.10;9.57;;;;;;;;;;5063216;28;20966;-92
2021/04/12 06:38:53;;;;;;;12.57;9.27;;;;;;;;;;5003341;28;21115;-91
2021/04/12 06:41:33;;;;;;;10.80;9.13;;;;;;;;;;5050255;28;20489;-92
2021/04/12 06:44:29;;;;;;;10.00;9.00;;;;;;;;;;5050620;28;20464;-92
2021/04/12 06:47:10;;;;;;;11.87;10.07;;;;;;;;;;5054273;28;20487;-91
2021/04/12 06:50:07;;;;;;;15.23;9.70;;;;;;;;;;5058828;28;20443;-92
2021/04/12 06:52:52;;;;;;;11.20;8.93;;;;;;;;;;5050294;28;21149;-93
2021/04/12 06:55:18;;;;;;;9.67;8.70;;;;;;;;;;5057480;28;20551;-92
2021/04/12 06:58:02;;;;;;;7.70;6.90;;;;;;;;;;5055661;28;20478;-94
2021/04/12 07:00:43;;;;;;;9.53;8.53;;;;;;;;;;5052795;28;20455;-92
2021/04/12 07:03:30;;;;;;;14.43;8.70;;;;;;;;;;5053615;28;20703;-93
2021/04/12 07:06:15;;;;;;;13.20;11.80;;;;;;;;;;5056426;28;20452;-93
2021/04/12 07:08:51;;;;;;;11.73;9.57;;;;;;;;;;5057890;28;20454;-92
2021/04/12 07:11:37;;;;;;;9.53;7.90;;;;;;;;;;5065227;28;20422;-95
2021/04/12 07:14:17;;;;;;;11.13;7.70;;;;;;;;;;5053763;28;20457;-92
2021/04/12 07:16:57;;;;;;;8.27;7.47;;;;;;;;;;5065968;28;20445;-93
2021/04/12 07:19:40;;;;;;;8.93;7.43;;;;;;;;;;5044432;28;20454;-92
2021/04/12 07:22:39;;;;;;;8.73;7.87;;;;;;;;;;5055811;28;20521;-94
2021/04/12 07:25:38;;;;;;;8.27;7.40;;;;;;;;;;5054414;28;20454;-93
2021/04/12 07:28:20;;;;;;;7.30;6.53;;;;;;;;;;4991763;28;20434;-93
2021/04/12 07:31:04;;;;;;;14.97;7.63;;;;;;;;;;4997883;28;20515;-90
2021/04/12 07:33:47;;;;;;;9.43;7.20;;;;;;;;;;5038443;28;20451;-93
2021/04/12 07:36:24;;;;;;;8.23;7.43;;;;;;;;;;5058979;28;20462;-92
2021/04/12 07:39:13;;;;;;;7.80;7.10;;;;;;;;;;5058281;28;20466;-93
2021/04/12 07:41:54;;;;;;;7.63;6.83;;;;;;;;;;5058470;28;20508;-93
2021/04/12 07:44:39;;;;;;;8.77;7.37;;;;;;;;;;5056861;28;20442;-93
2021/04/12 07:47:31;;;;;;;7.20;6.50;;;;;;;;;;5055240;28;20450;-94
2021/04/12 07:50:18;;;;;;;7.10;6.27;;;;;;;;;;5049778;28;20458;-91
2021/04/12 07:53:11;;;;;;;8.63;7.83;;;;;;;;;;5027676;28;20497;-94
2021/04/12 07:55:49;;;;;;;10.40;7.20;;;;;;;;;;5050971;28;20674;-94
2021/04/12 07:58:39;;;;;;;6.93;6.30;;;;;;;;;;5049833;28;20477;-96
2021/04/12 08:01:27;;;;;;;7.00;6.30;;;;;;;;;;5023441;28;20476;-93
2021/04/12 08:04:07;;;;;;;9.23;6.20;;;;;;;;;;5046539;28;20468;-95
2021/04/12 08:06:51;;;;;;;6.53;5.93;;;;;;;;;;5051894;28;20459;-94
2021/04/12 08:09:32;;;;;;;8.90;6.70;;;;;;;;;;5045562;28;20447;-96
2021/04/12 08:12:22;;;;;;;6.43;5.60;;;;;;;;;;5044516;28;20459;-94
2021/04/12 08:15:20;;;;;;;9.07;6.60;;;;;;;;;;5053773;28;20459;-95
2021/04/12 08:18:06;;;;;;;6.97;6.27;;;;;;;;;;5064668;28;20454;-92
2021/04/12 08:20:53;;;;;;;7.30;6.50;;;;;;;;;;5059225;28;20510;-95
2021/04/12 08:23:43;;;;;;;8.63;5.97;;;;;;;;;;5054534;28;20481;-94
2021/04/12 08:26:29;;;;;;;6.80;6.10;;;;;;;;;;5052335;28;20463;-94
2021/04/12 08:29:10;;;;;;;6.70;6.00;;;;;;;;;;5044854;28;20455;-93
2021/04/12 08:31:49;;;;;;;7.30;6.60;;;;;;;;;;5044132;28;20454;-93
2021/04/12 08:34:35;;;;;;;6.20;5.70;;;;;;;;;;5055885;28;20447;-94
2021/04/12 08:37:07;;;;;;;7.80;7.00;;;;;;;;;;5047492;28;20455;-96
2021/04/12 08:39:49;;;;;;;9.57;5.40;;;;;;;;;;5055026;28;20465;-93
2021/04/12 08:42:35;;;;;;;7.03;5.67;;;;;;;;;;5051969;28;20498;-95
2021/04/12 08:45:06;;;;;;;5.93;5.33;;;;;;;;;;5052477;28;20484;-93
2021/04/12 08:47:45;;;;;;;6.37;5.77;;;;;;;;;;5044314;28;20936;-95
2021/04/12 08:50:28;;;;;;;6.40;5.80;;;;;;;;;;5056675;28;20439;-93
2021/04/12 08:53:09;;;;;;;6.17;5.57;;;;;;;;;;5054544;28;20464;-93
2021/04/12 08:55:58;;;;;;;8.00;5.40;;;;;;;;;;5046233;28;20451;-94
2021/04/12 08:58:39;;;;;;;6.37;5.73;;;;;;;;;;5055406;28;20515;-92
2021/04/12 09:01:23;;;;;;;6.80;5.30;;;;;;;;;;5054332;28;20443;-94
2021/04/12 09:04:08;;;;;;;5.13;4.73;;;;;;;;;;5046292;28;20463;-95
2021/04/12 09:06:52;;;;;;;5.50;4.83;;;;;;;;;;5060035;28;20484;-94
2021/04/12 09:09:48;;;;;;;6.87;5.77;;;;;;;;;;5048110;28;20460;-95
2021/04/12 09:12:32;;;;;;;6.57;5.97;;;;;;;;;;5044694;28;20473;-96
2021/04/12 09:15:10;;;;;;;6.23;4.73;;;;;;;;;;5049471;28;20455;-94
2021/04/12 09:17:47;;;;;;;6.57;5.97;;;;;;;;;;5048499;28;20450;-94
2021/04/12 09:20:26;;;;;;;5.70;5.20;;;;;;;;;;5060846;28;20464;-95
2021/04/12 09:23:04;;;;;;;8.03;5.47;;;;;;;;;;5051889;28;20493;-96
2021/04/12 09:25:55;;;;;;;7.23;4.93;;;;;;;;;;5054152;28;20441;-94
2021/04/12 09:28:33;;;;;;;6.40;5.13;;;;;;;;;;5056741;28;20532;-96
2021/04/12 09:31:29;;;;;;;5.93;5.37;;;;;;;;;;5053833;28;20449;-96
2021/04/12 09:34:22;;;;;;;6.20;5.50;;;;;;;;;;4986204;28;20453;-95
2021/04/12 09:36:59;;;;;;;6.00;5.50;;;;;;;;;;5045253;28;20467;-95
2021/04/12 09:39:45;;;;;;;5.93;5.10;;;;;;;;;;5041285;28;20466;-96
2021/04/12 09:42:29;;;;;;;5.93;5.43;;;;;;;;;;5044867;28;20506;-96
2021/04/12 09:45:17;;;;;;;6.00;5.40;;;;;;;;;;5052457;28;20462;-94
2021/04/12 09:47:56;;;;;;;10.83;5.20;;;;;;;;;;5062044;28;20418;-96
2021/04/12 09:50:45;;;;;;;5.20;4.80;;;;;;;;;;5060275;28;20439;-96
2021/04/12 09:53:20;;;;;;;5.73;5.23;;;;;;;;;;5055308;28;20466;-95
2021/04/12 09:56:06;;;;;;;5.50;4.70;;;;;;;;;;5055384;28;20458;-93
2021/04/12 09:59:04;;;;;;;6.03;5.30;;;;;;;;;;5053285;28;20484;-94
2021/04/12 10:01:44;;;;;;;5.67;5.07;;;;;;;;;;5049866;28;20498;-96
2021/04/12 10:04:30;;;;;;;6.40;4.60;;;;;;;;;;5059389;28;20447;-93
2021/04/12 10:07:18;;;;;;;4.53;4.23;;;;;;;;;;5046116;28;20446;-93
2021/04/12 10:09:49;;;;;;;5.70;5.20;;;;;;;;;;5050049;28;20451;-93
2021/04/12 10:12:29;;;;;;;6.20;4.77;;;;;;;;;;5049844;28;20473;-93
2021/04/12 10:14:59;;;;;;;6.27;4.90;;;;;;;;;;5049431;28;20499;-94
2021/04/12 10:17:28;;;;;;;5.07;4.67;;;;;;;;;;5051626;28;20453;-95
2021/04/12 10:19:56;;;;;;;5.10;4.70;;;;;;;;;;5056566;28;20457;-95
2021/04/12 10:22:27;;;;;;;5.43;4.90;;;;;;;;;;5050393;28;20556;-94
2021/04/12 10:24:55;;;;;;;4.93;4.43;;;;;;;;;;5050199;28;20497;-95
2021/04/12 10:27:26;;;;;;;6.93;4.33;;;;;;;;;;5050614;28;20482;-96
2021/04/12 10:29:56;;;;;;;7.63;5.10;;;;;;;;;;5050183;28;20454;-96
2021/04/12 10:32:25;;;;;;;5.40;4.90;;;;;;;;;;5061426;28;20489;-95
2021/04/12 10:34:57;;;;;;;4.87;4.57;;;;;;;;;;5047585;28;20463;-93
2021/04/12 10:37:32;;;;;;;4.90;4.40;;;;;;;;;;5056602;28;20505;-94
2021/04/12 10:40:02;;;;;;;7.83;5.00;;;;;;;;;;5055018;28;20460;-94
2021/04/12 10:42:36;;;;;;;6.73;4.97;;;;;;;;;;5046619;28;20493;-94
2021/04/12 10:45:11;;;;;;;5.67;5.07;;;;;;;;;;5058140;28;20443;-95
2021/04/12 10:47:46;;;;;;;10.03;5.20;;;;;;;;;;5055151;28;20457;-96
2021/04/12 10:50:19;;;;;;;6.03;5.10;;;;;;;;;;5047832;28;20477;-94
2021/04/12 10:52:56;;;;;;;5.53;5.13;;;;;;;;;;5055029;28;20454;-95
2021/04/12 10:55:27;;;;;;;5.10;4.60;;;;;;;;;;5056436;28;20573;-96
2021/04/12 10:58:11;;;;;;;5.63;5.00;;;;;;;;;;5046196;28;20482;-96
2021/04/12 11:00:49;;;;;;;5.47;4.93;;;;;;;;;;5058248;28;20458;-95
2021/04/12 11:03:31;;;;;;;5.13;4.60;;;;;;;;;;5059316;28;20528;-93
2021/04/12 11:06:06;;;;;;;5.40;4.90;;;;;;;;;;5054511;28;20461;-95
2021/04/12 11:08:39;;;;;;;5.00;4.50;;;;;;;;;;5048174;28;20457;-94
2021/04/12 11:11:21;;;;;;;6.03;4.53;;;;;;;;;;5056316;28;20459;-94
2021/04/12 11:16:44;;;;;;;5.63;4.50;;;;;;;;;;5059655;28;20470;-94
2021/04/12 11:19:16;;;;;;;8.27;4.80;;;;;;;;;;5058679;28;20460;-93
2021/04/12 11:21:44;;;;;;;7.33;5.43;;;;;;;;;;5048233;28;20520;-93
2021/04/12 11:24:18;;;;;;;5.10;4.60;;;;;;;;;;5055256;28;20479;-95
2021/04/12 11:27:03;;;;;;;6.27;4.40;;;;;;;;;;5051565;28;20453;-94
2021/04/12 11:29:30;;;;;;;5.23;4.57;;;;;;;;;;5043017;28;20459;-93
2021/04/12 11:32:04;;;;;;;5.50;4.80;;;;;;;;;;5061765;28;20458;-95
2021/04/12 11:34:33;;;;;;;5.33;4.90;;;;;;;;;;5059041;28;20449;-94
2021/04/12 11:37:12;;;;;;;5.70;5.17;;;;;;;;;;5053463;28;20451;-94
2021/04/12 11:39:41;;;;;;;5.33;4.57;;;;;;;;;;5049213;28;20447;-94
2021/04/12 11:42:10;;;;;;;5.13;4.63;;;;;;;;;;5046893;28;20490;-94
2021/04/12 11:44:45;;;;;;;5.17;4.73;;;;;;;;;;5060626;28;20453;-93
2021/04/12 11:47:26;;;;;;;6.17;4.60;;;;;;;;;;5055719;28;20469;-95
2021/04/12 11:50:05;;;;;;;4.97;4.47;;;;;;;;;;5051607;28;20445;-95
2021/04/12 11:52:36;;;;;;;5.67;5.10;;;;;;;;;;5051615;28;20451;-95
2021/04/12 11:55:08;;;;;;;9.57;5.00;;;;;;;;;;5051471;28;20454;-94
2021/04/12 11:57:49;;;;;;;6.20;4.63;;;;;;;;;;5057691;28;20458;-95
2021/04/12 12:00:18;;;;;;;5.27;4.47;;;;;;;;;;5052544;28;20480;-96
2021/04/12 12:03:02;;;;;;;7.93;4.40;;;;;;;;;;5061603;28;20493;-95
2021/04/12 12:05:32;;;;;;;8.03;4.60;;;;;;;;;;5045282;28;20458;-92
2021/04/12 12:07:59;;;;;;;6.50;4.63;;;;;;;;;;5055379;28;20463;-94
2021/04/12 12:10:42;;;;;;;6.40;4.53;;;;;;;;;;5050606;28;20477;-94
2021/04/12 12:13:18;;;;;;;9.63;4.00;;;;;;;;;;5054775;28;20450;-94
2021/04/12 12:16:04;;;;;;;5.33;4.07;;;;;;;;;;5056320;28;20451;-95
2021/04/12 12:18:33;;;;;;;7.77;4.40;;;;;;;;;;5052893;28;20450;-93
2021/04/12 12:21:07;;;;;;;7.33;4.20;;;;;;;;;;5055647;28;20459;-93
2021/04/12 12:23:41;;;;;;;9.13;4.10;;;;;;;;;;5054999;28;20478;-93
2021/04/12 12:26:09;;;;;;;5.93;3.83;;;;;;;;;;5066075;28;20450;-93
2021/04/12 12:28:41;;;;;;;4.63;4.23;;;;;;;;;;5059691;28;20439;-95
2021/04/12 12:31:30;;;;;;;5.80;4.00;;;;;;;;;;5054608;28;20443;-93
2021/04/12 12:34:01;;;;;;;5.83;4.60;;;;;;;;;;5054806;28;21005;-93
2021/04/12 12:36:32;;;;;;;6.77;4.50;;;;;;;;;;5055025;28;20496;-95
2021/04/12 12:39:02;;;;;;;5.43;4.00;;;;;;;;;;5047186;28;20443;-94
2021/04/12 12:41:29;;;;;;;6.80;4.47;;;;;;;;;;5049760;28;20458;-94
2021/04/12 12:44:02;;;;;;;7.00;3.90;;;;;;;;;;5050709;28;20469;-93
2021/04/12 12:46:30;;;;;;;6.67;4.37;;;;;;;;;;5045171;28;20451;-93
2021/04/12 12:49:01;;;;;;;6.10;4.50;;;;;;;;;;5059624;28;20461;-95
2021/04/12 12:51:29;;;;;;;5.33;4.10;;;;;;;;;;5051670;28;20490;-93
2021/04/12 12:54:01;;;;;;;6.20;4.73;;;;;;;;;;5052095;28;20450;-94
2021/04/12 12:56:29;;;;;;;6.70;4.33;;;;;;;;;;5045711;28;20465;-93
2021/04/12 12:58:57;;;;;;;7.03;4.30;;;;;;;;;;5052759;28;20471;-94
2021/04/12 13:01:27;;;;;;;5.00;4.40;;;;;;;;;;5044429;28;20451;-94
2021/04/12 13:03:55;;;;;;;6.23;4.30;;;;;;;;;;5045753;28;20497;-95
2021/04/12 13:06:31;;;;;;;6.33;4.03;;;;;;;;;;5056133;28;20453;-96
2021/04/12 13:11:54;;;;;;;7.93;5.27;;;;;;;;;;5070554;28;20565;-96
2021/04/12 13:17:17;;;;;;;7.03;4.07;;;;;;;;;;5103447;22;20502;-96
2021/04/12 13:19:45;;;;;;;5.93;4.63;;;;;;;;;;5052187;28;20460;-93
2021/04/12 13:22:11;;;;;;;8.20;4.30;;;;;;;;;;5056476;28;20490;-95
2021/04/12 13:24:39;;;;;;;5.83;3.90;;;;;;;;;;5042559;28;20450;-95
2021/04/12 13:27:07;;;;;;;5.43;4.17;;;;;;;;;;5043614;28;20458;-93
2021/04/12 13:29:36;;;;;;;5.70;4.40;;;;;;;;;;5059997;28;20461;-94
2021/04/12 13:32:10;;;;;;;9.40;4.43;;;;;;;;;;5055303;28;20484;-92
2021/04/12 13:34:41;;;;;;;7.03;4.50;;;;;;;;;;5059618;28;20458;-93
2021/04/12 13:37:12;;;;;;;6.23;4.77;;;;;;;;;;5054061;28;20423;-95
2021/04/12 13:39:40;;;;;;;6.30;3.80;;;;;;;;;;5053340;28;20470;-95
2021/04/12 13:42:12;;;;;;;6.07;4.13;;;;;;;;;;5054074;28;20490;-96
2021/04/12 13:44:46;;;;;;;5.30;4.00;;;;;;;;;;5049150;28;20469;-96
2021/04/12 13:47:16;;;;;;;7.37;4.20;;;;;;;;;;5042476;28;20454;-94
2021/04/12 13:49:44;;;;;;;4.67;3.70;;;;;;;;;;5042460;28;20466;-94
2021/04/12 13:52:15;;;;;;;6.90;3.93;;;;;;;;;;5051475;28;20453;-95
2021/04/12 13:54:46;;;;;;;7.63;3.83;;;;;;;;;;5051325;28;20494;-96
2021/04/12 13:57:25;;;;;;;6.37;3.70;;;;;;;;;;5054183;28;20450;-94
2021/04/12 13:59:54;;;;;;;9.90;3.90;;;;;;;;;;5056729;28;20446;-96
2021/04/12 14:02:25;;;;;;;6.37;3.90;;;;;;;;;;5052569;28;20486;-96
2021/04/12 14:04:54;;;;;;;7.80;3.80;;;;;;;;;;5049489;28;20617;-94
2021/04/12 14:07:25;;;;;;;7.50;3.40;;;;;;;;;;5056767;28;20488;-95
2021/04/12 14:09:52;;;;;;;5.70;3.87;;;;;;;;;;5050981;28;20955;-93
2021/04/12 14:12:21;;;;;;;5.17;3.63;;;;;;;;;;5048676;28;21052;-92
2021/04/12 14:14:50;;;;;;;3.40;3.10;;;;;;;;;;5043650;28;20488;-93
2021/04/12 14:17:21;;;;;;;5.13;4.57;;;;;;;;;;5056746;28;20552;-94
2021/04/12 14:19:51;;;;;;;9.77;4.50;;;;;;;;;;5052068;28;20869;-94
2021/04/12 14:22:19;;;;;;;7.50;3.93;;;;;;;;;;5052240;28;20524;-94
2021/04/12 14:24:48;;;;;;;8.60;3.70;;;;;;;;;;5053414;28;21029;-95
2021/04/12 14:27:18;;;;;;;5.57;3.60;;;;;;;;;;5056350;28;20485;-96
2021/04/12 14:29:49;;;;;;;10.20;4.20;;;;;;;;;;5057324;28;20481;-93
2021/04/12 14:32:19;;;;;;;12.10;3.90;;;;;;;;;;5058123;28;20434;-95
2021/04/12 14:34:46;;;;;;;5.13;3.20;;;;;;;;;;5050872;28;20436;-94
2021/04/12 14:37:16;;;;;;;8.70;3.47;;;;;;;;;;5047528;28;21168;-93
2021/04/12 14:39:43;;;;;;;7.67;4.23;;;;;;;;;;5051350;28;20457;-93
2021/04/12 14:42:13;;;;;;;6.87;3.63;;;;;;;;;;5046459;28;20482;-95
2021/04/12 14:44:50;;;;;;;6.87;4.43;;;;;;;;;;5062534;28;20442;-95
2021/04/12 14:47:22;;;;;;;5.60;4.03;;;;;;;;;;5056554;28;20461;-95
2021/04/12 14:49:51;;;;;;;11.67;4.33;;;;;;;;;;5057802;28;20443;-96
2021/04/12 14:52:34;;;;;;;11.53;4.07;;;;;;;;;;5050612;28;20449;-96
2021/04/12 14:55:07;;;;;;;7.30;4.00;;;;;;;;;;5044716;28;20446;-94
2021/04/12 14:57:36;;;;;;;12.90;4.37;;;;;;;;;;5046855;28;20493;-94
2021/04/12 15:00:09;;;;;;;11.50;3.70;;;;;;;;;;5047869;28;20458;-95
2021/04/12 15:02:38;;;;;;;6.63;3.87;;;;;;;;;;5049777;28;20523;-95
2021/04/12 15:05:08;;;;;;;9.87;4.00;;;;;;;;;;5055653;28;20449;-95
2021/04/12 15:07:38;;;;;;;6.80;3.90;;;;;;;;;;5063961;28;20442;-94
2021/04/12 15:10:06;;;;;;;7.00;4.33;;;;;;;;;;5059466;28;20434;-93
2021/04/12 15:12:35;;;;;;;6.50;4.43;;;;;;;;;;5060752;28;20434;-95
2021/04/12 15:15:08;;;;;;;6.00;4.47;;;;;;;;;;5054635;28;20997;-96
2021/04/12 15:17:37;;;;;;;7.37;4.60;;;;;;;;;;5051178;28;20454;-94
2021/04/12 15:20:05;;;;;;;7.63;4.60;;;;;;;;;;5071715;28;20458;-96
2021/04/12 15:22:33;;;;;;;6.47;4.50;;;;;;;;;;5067295;28;20500;-96
2021/04/12 15:25:02;;;;;;;6.77;5.20;;;;;;;;;;5059194;28;20432;-94
2021/04/12 15:27:30;;;;;;;5.20;4.27;;;;;;;;;;5052778;28;21175;-96
2021/04/12 15:30:07;;;;;;;5.10;4.53;;;;;;;;;;5058791;28;20458;-96
2021/04/12 15:32:36;;;;;;;9.73;5.50;;;;;;;;;;5046871;28;20467;-96
2021/04/12 15:35:04;;;;;;;5.30;4.80;;;;;;;;;;5058447;28;20462;-95
2021/04/12 15:37:36;;;;;;;6.13;4.50;;;;;;;;;;5059332;28;20454;-96
2021/04/12 15:40:15;;;;;;;6.50;4.50;;;;;;;;;;5055693;28;20496;-96
2021/04/12 15:42:43;;;;;;;9.13;5.20;;;;;;;;;;5046572;28;20541;-96